Time,TemperatureF,DewpointF,PressureIn,WindDirection,WindDirectionDegrees,WindSpeedMPH,WindSpeedGustMPH,Humidity,HourlyPrecipIn,Conditions,Clouds,dailyrainin,SoftwareType,DateUTC
2013-01-13 00:00:00,37.7,36.9,29.99,East,101,0.0,0.0,97,0.00,,,0.03,VWS V14.01,2013-01-13 05:00:00,
2013-01-13 00:01:00,37.7,36.9,29.99,East,101,0.0,0.0,97,0.00,,,0.03,VWS V14.01,2013-01-13 05:01:00,
2013-01-13 00:02:00,37.7,36.9,29.98,East,101,0.0,0.0,97,0.00,,,0.00,VWS V14.01,2013-01-13 05:02:00,
2013-01-13 00:03:00,37.7,36.9,29.98,East,101,0.0,0.0,97,0.00,,,0.00,VWS V14.01,2013-01-13 05:03:00,
2013-01-13 00:08:00,37.5,36.7,29.98,East,101,0.0,0.0,97,0.00,,,0.00,VWS V14.01,2013-01-13 05:08:00,
2013-01-13 00:13:00,37.4,36.6,29.99,East,101,0.0,0.0,97,0.00,,,0.00,VWS V14.01,2013-01-13 05:13:00,
2013-01-13 00:18:00,37.2,36.4,29.99,East,101,0.0,0.0,97,0.00,,,0.00,VWS V14.01,2013-01-13 05:18:00,
2013-01-13 00:23:00,37.2,36.4,29.99,East,101,0.0,0.0,97,0.00,,,0.00,VWS V14.01,2013-01-13 05:23:00,
2013-01-13 00:28:00,37.3,36.5,29.99,East,101,0.0,0.0,97,0.00,,,0.00,VWS V14.01,2013-01-13 05:28:00,
2013-01-13 00:33:00,37.3,36.5,29.99,East,101,0.0,0.0,97,0.00,,,0.00,VWS V14.01,2013-01-13 05:33:00,
2013-01-13 00:38:00,37.4,36.6,29.99,East,101,0.0,0.0,97,0.00,,,0.00,VWS V14.01,2013-01-13 05:38:00,
2013-01-13 00:43:00,37.5,36.7,29.98,East,101,0.0,0.0,97,0.00,,,0.00,VWS V14.01,2013-01-13 05:43:00,
2013-01-13 00:48:00,37.5,36.7,29.99,East,101,0.0,0.0,97,0.00,,,0.00,VWS V14.01,2013-01-13 05:48:00,
2013-01-13 00:53:00,37.5,36.7,29.99,East,101,0.0,0.0,97,0.00,,,0.00,VWS V14.01,2013-01-13 05:53:00,
2013-01-13 00:58:00,37.6,36.8,29.98,East,101,0.0,0.0,97,0.00,,,0.00,VWS V14.01,2013-01-13 05:58:00,
2013-01-13 01:03:00,37.6,36.8,29.98,East,101,0.0,0.0,97,0.00,,,0.00,VWS V14.01,2013-01-13 06:03:00,
2013-01-13 01:08:00,37.5,36.7,29.98,East,101,0.0,0.0,97,0.00,,,0.00,VWS V14.01,2013-01-13 06:08:00,
2013-01-13 01:13:00,37.5,36.7,29.98,East,101,0.0,0.0,97,0.00,,,0.00,VWS V14.01,2013-01-13 06:13:00,
2013-01-13 01:18:00,37.7,36.9,29.98,East,101,0.0,0.0,97,0.00,,,0.00,VWS V14.01,2013-01-13 06:18:00,
2013-01-13 01:23:00,37.7,36.9,29.98,East,101,0.0,0.0,97,0.00,,,0.00,VWS V14.01,2013-01-13 06:23:00,
2013-01-13 01:28:00,37.7,36.9,29.98,East,101,0.0,0.0,97,0.00,,,0.00,VWS V14.01,2013-01-13 06:28:00,
2013-01-13 01:33:00,37.8,37.0,29.98,East,101,0.0,0.0,97,0.00,,,0.00,VWS V14.01,2013-01-13 06:33:00,
2013-01-13 01:38:00,37.8,37.0,29.98,East,101,0.0,0.0,97,0.00,,,0.00,VWS V14.01,2013-01-13 06:38:00,
2013-01-13 01:43:00,37.8,37.0,29.98,East,101,0.0,0.0,97,0.00,,,0.00,VWS V14.01,2013-01-13 06:43:00,
2013-01-13 01:48:00,37.9,37.1,29.99,East,101,0.0,0.0,97,0.00,,,0.00,VWS V14.01,2013-01-13 06:48:00,
2013-01-13 01:53:00,37.9,37.1,29.99,East,101,0.0,0.0,97,0.00,,,0.00,VWS V14.01,2013-01-13 06:53:00,
2013-01-13 01:58:00,38.1,37.6,29.99,East,101,0.0,0.0,98,0.00,,,0.00,VWS V14.01,2013-01-13 06:58:00,
2013-01-13 02:03:00,38.1,37.6,29.99,East,101,0.0,0.0,98,0.00,,,0.00,VWS V14.01,2013-01-13 07:03:00,
2013-01-13 02:08:00,38.0,37.2,29.99,East,101,0.0,0.0,97,0.00,,,0.00,VWS V14.01,2013-01-13 07:08:00,
2013-01-13 02:13:00,38.0,37.2,30.00,East,101,0.0,0.0,97,0.00,,,0.00,VWS V14.01,2013-01-13 07:13:00,
2013-01-13 02:18:00,38.0,37.2,29.99,East,101,0.0,0.0,97,0.00,,,0.00,VWS V14.01,2013-01-13 07:18:00,
2013-01-13 02:23:00,38.2,37.7,29.99,East,101,0.0,0.0,98,0.00,,,0.00,VWS V14.01,2013-01-13 07:23:00,
2013-01-13 02:28:00,38.4,37.9,29.99,East,101,0.0,0.0,98,0.00,,,0.00,VWS V14.01,2013-01-13 07:28:00,
2013-01-13 02:33:00,38.5,37.7,29.98,East,101,0.0,0.0,97,0.00,,,0.00,VWS V14.01,2013-01-13 07:33:00,
2013-01-13 02:38:00,38.5,37.7,29.98,East,101,0.0,0.0,97,0.00,,,0.00,VWS V14.01,2013-01-13 07:38:00,
2013-01-13 02:43:00,38.5,37.7,29.98,East,101,0.0,0.0,97,0.00,,,0.00,VWS V14.01,2013-01-13 07:43:00,
2013-01-13 02:48:00,38.4,37.6,29.98,East,101,0.0,0.0,97,0.00,,,0.00,VWS V14.01,2013-01-13 07:48:00,
2013-01-13 02:53:00,38.4,37.6,29.98,East,101,0.0,0.0,97,0.00,,,0.00,VWS V14.01,2013-01-13 07:53:00,
2013-01-13 02:58:00,38.4,37.6,29.99,East,101,0.0,0.0,97,0.00,,,0.00,VWS V14.01,2013-01-13 07:58:00,
2013-01-13 03:03:00,38.4,37.9,29.99,East,101,0.0,0.0,98,0.00,,,0.00,VWS V14.01,2013-01-13 08:03:00,
2013-01-13 03:08:00,38.4,37.9,29.99,East,101,0.0,0.0,98,0.00,,,0.00,VWS V14.01,2013-01-13 08:08:00,
2013-01-13 03:13:00,38.4,37.9,29.99,East,101,0.0,0.0,98,0.00,,,0.00,VWS V14.01,2013-01-13 08:13:00,
2013-01-13 03:18:00,38.4,37.9,29.99,East,101,0.0,0.0,98,0.00,,,0.00,VWS V14.01,2013-01-13 08:18:00,
2013-01-13 03:23:00,38.4,37.9,29.99,East,101,0.0,0.0,98,0.00,,,0.00,VWS V14.01,2013-01-13 08:23:00,
2013-01-13 03:28:00,38.3,37.8,29.98,East,101,0.0,0.0,98,0.00,,,0.00,VWS V14.01,2013-01-13 08:28:00,
2013-01-13 03:33:00,38.4,37.9,29.98,East,101,0.0,0.0,98,0.00,,,0.00,VWS V14.01,2013-01-13 08:33:00,
2013-01-13 03:38:00,38.5,38.0,29.98,East,101,0.0,0.0,98,0.00,,,0.00,VWS V14.01,2013-01-13 08:38:00,
2013-01-13 03:43:00,38.7,37.9,29.98,East,101,0.0,0.0,97,0.00,,,0.00,VWS V14.01,2013-01-13 08:43:00,
2013-01-13 03:48:00,38.7,38.2,29.97,East,101,0.0,0.0,98,0.00,,,0.00,VWS V14.01,2013-01-13 08:48:00,
2013-01-13 03:53:00,38.6,38.1,29.97,East,101,0.0,0.0,98,0.00,,,0.00,VWS V14.01,2013-01-13 08:53:00,
2013-01-13 03:58:00,38.6,38.1,29.97,East,101,0.0,0.0,98,0.00,,,0.00,VWS V14.01,2013-01-13 08:58:00,
2013-01-13 04:03:00,38.4,37.9,29.96,East,101,0.0,0.0,98,0.00,,,0.00,VWS V14.01,2013-01-13 09:03:00,
2013-01-13 04:08:00,37.9,37.1,29.96,East,101,0.0,0.0,97,0.00,,,0.00,VWS V14.01,2013-01-13 09:08:00,
2013-01-13 04:12:00,37.8,37.3,29.96,East,101,0.0,0.0,98,0.00,,,0.00,VWS V14.01,2013-01-13 09:12:00,
2013-01-13 04:17:00,37.8,37.0,29.95,East,101,0.0,0.0,97,0.00,,,0.00,VWS V14.01,2013-01-13 09:17:00,
2013-01-13 04:22:00,37.9,37.1,29.95,East,101,0.0,0.0,97,0.00,,,0.00,VWS V14.01,2013-01-13 09:22:00,
2013-01-13 04:27:00,38.2,37.7,29.95,East,101,0.0,0.0,98,0.00,,,0.00,VWS V14.01,2013-01-13 09:27:00,
2013-01-13 04:32:00,38.4,37.9,29.96,East,101,0.0,0.0,98,0.00,,,0.00,VWS V14.01,2013-01-13 09:32:00,
2013-01-13 04:37:00,38.4,37.9,29.96,East,101,0.0,0.0,98,0.00,,,0.00,VWS V14.01,2013-01-13 09:37:00,
2013-01-13 04:42:00,38.4,37.9,29.96,East,101,0.0,0.0,98,0.00,,,0.00,VWS V14.01,2013-01-13 09:42:00,
2013-01-13 04:47:00,38.3,37.8,29.95,East,101,0.0,0.0,98,0.00,,,0.00,VWS V14.01,2013-01-13 09:47:00,
2013-01-13 04:52:00,38.2,37.7,29.95,East,101,0.0,0.0,98,0.00,,,0.00,VWS V14.01,2013-01-13 09:52:00,
2013-01-13 04:57:00,38.0,37.5,29.94,East,101,0.0,0.0,98,0.00,,,0.00,VWS V14.01,2013-01-13 09:57:00,
2013-01-13 05:02:00,37.8,37.3,29.94,East,101,0.0,0.0,98,0.00,,,0.00,VWS V14.01,2013-01-13 10:02:00,
2013-01-13 05:07:00,37.8,37.3,29.95,East,101,0.0,0.0,98,0.00,,,0.00,VWS V14.01,2013-01-13 10:07:00,
2013-01-13 05:12:00,37.7,37.2,29.94,East,101,0.0,0.0,98,0.00,,,0.00,VWS V14.01,2013-01-13 10:12:00,
2013-01-13 05:17:00,37.8,37.3,29.94,East,101,0.0,0.0,98,0.00,,,0.00,VWS V14.01,2013-01-13 10:17:00,
2013-01-13 05:22:00,37.7,37.2,29.94,East,101,0.0,0.0,98,0.00,,,0.00,VWS V14.01,2013-01-13 10:22:00,
2013-01-13 05:27:00,37.7,37.2,29.94,East,101,0.0,0.0,98,0.00,,,0.00,VWS V14.01,2013-01-13 10:27:00,
2013-01-13 05:32:00,37.7,37.2,29.95,East,101,0.0,0.0,98,0.00,,,0.00,VWS V14.01,2013-01-13 10:32:00,
2013-01-13 05:37:00,37.7,37.2,29.96,East,101,0.0,1.0,98,0.00,,,0.00,VWS V14.01,2013-01-13 10:37:00,
2013-01-13 05:42:00,37.8,37.3,29.96,East,101,0.0,0.0,98,0.00,,,0.00,VWS V14.01,2013-01-13 10:42:00,
2013-01-13 05:47:00,37.9,37.4,29.96,East,101,0.0,0.0,98,0.00,,,0.00,VWS V14.01,2013-01-13 10:47:00,
2013-01-13 05:52:00,37.9,37.4,29.96,East,101,0.0,0.0,98,0.00,,,0.00,VWS V14.01,2013-01-13 10:52:00,
2013-01-13 05:57:00,37.7,37.2,29.97,East,101,0.0,0.0,98,0.00,,,0.00,VWS V14.01,2013-01-13 10:57:00,
2013-01-13 06:02:00,37.7,37.2,29.96,East,101,0.0,0.0,98,0.00,,,0.00,VWS V14.01,2013-01-13 11:02:00,
2013-01-13 06:07:00,37.8,37.3,29.97,East,101,0.0,0.0,98,0.00,,,0.00,VWS V14.01,2013-01-13 11:07:00,
2013-01-13 06:12:00,38.0,37.5,29.97,East,101,0.0,0.0,98,0.00,,,0.00,VWS V14.01,2013-01-13 11:12:00,
2013-01-13 06:17:00,38.1,37.6,29.97,East,101,0.0,0.0,98,0.00,,,0.00,VWS V14.01,2013-01-13 11:17:00,
2013-01-13 06:22:00,38.2,37.7,29.96,East,101,0.0,0.0,98,0.00,,,0.00,VWS V14.01,2013-01-13 11:22:00,
2013-01-13 06:27:00,38.0,37.5,29.95,East,101,0.0,0.0,98,0.00,,,0.00,VWS V14.01,2013-01-13 11:27:00,
2013-01-13 06:32:00,38.0,37.5,29.95,East,101,0.0,0.0,98,0.00,,,0.00,VWS V14.01,2013-01-13 11:32:00,
2013-01-13 06:37:00,38.1,37.6,29.96,East,101,0.0,0.0,98,0.00,,,0.00,VWS V14.01,2013-01-13 11:37:00,
2013-01-13 06:42:00,38.2,37.7,29.96,East,101,0.0,0.0,98,0.00,,,0.00,VWS V14.01,2013-01-13 11:42:00,
2013-01-13 06:47:00,38.2,37.7,29.96,East,101,0.0,0.0,98,0.00,,,0.00,VWS V14.01,2013-01-13 11:47:00,
2013-01-13 06:52:00,38.2,37.7,29.96,East,101,0.0,0.0,98,0.00,,,0.00,VWS V14.01,2013-01-13 11:52:00,
2013-01-13 06:57:00,38.3,37.8,29.97,East,101,0.0,0.0,98,0.00,,,0.00,VWS V14.01,2013-01-13 11:57:00,
2013-01-13 07:02:00,38.5,38.0,29.97,East,101,0.0,0.0,98,0.00,,,0.00,VWS V14.01,2013-01-13 12:02:00,
2013-01-13 07:07:00,38.5,38.0,29.97,East,101,0.0,0.0,98,0.00,,,0.00,VWS V14.01,2013-01-13 12:07:00,
2013-01-13 07:12:00,38.5,38.0,29.97,East,101,0.0,0.0,98,0.00,,,0.00,VWS V14.01,2013-01-13 12:12:00,
2013-01-13 07:17:00,38.6,38.1,29.97,East,101,0.0,0.0,98,0.00,,,0.00,VWS V14.01,2013-01-13 12:17:00,
2013-01-13 07:22:00,38.6,38.1,29.98,East,101,0.0,0.0,98,0.00,,,0.00,VWS V14.01,2013-01-13 12:22:00,
2013-01-13 07:27:00,38.7,38.2,29.98,East,101,0.0,0.0,98,0.00,,,0.00,VWS V14.01,2013-01-13 12:27:00,
2013-01-13 07:32:00,38.7,38.2,29.98,East,101,0.0,0.0,98,0.00,,,0.00,VWS V14.01,2013-01-13 12:32:00,
2013-01-13 07:37:00,38.7,38.2,29.98,East,101,0.0,0.0,98,0.00,,,0.00,VWS V14.01,2013-01-13 12:37:00,
2013-01-13 07:42:00,38.6,38.1,29.98,East,101,0.0,0.0,98,0.00,,,0.00,VWS V14.01,2013-01-13 12:42:00,
2013-01-13 07:47:00,38.6,38.1,29.98,East,101,0.0,0.0,98,0.00,,,0.00,VWS V14.01,2013-01-13 12:47:00,
2013-01-13 07:52:00,38.6,38.1,29.99,East,101,0.0,0.0,98,0.00,,,0.00,VWS V14.01,2013-01-13 12:52:00,
2013-01-13 07:57:00,38.6,38.1,29.99,East,101,0.0,0.0,98,0.00,,,0.00,VWS V14.01,2013-01-13 12:57:00,
2013-01-13 08:02:00,38.7,38.2,29.99,East,101,0.0,0.0,98,0.00,,,0.00,VWS V14.01,2013-01-13 13:02:00,
2013-01-13 08:07:00,38.7,38.2,29.98,East,101,0.0,0.0,98,0.00,,,0.00,VWS V14.01,2013-01-13 13:07:00,
2013-01-13 08:12:00,38.7,38.2,29.99,East,101,0.0,0.0,98,0.00,,,0.00,VWS V14.01,2013-01-13 13:12:00,
2013-01-13 08:17:00,38.7,38.2,29.98,East,101,0.0,0.0,98,0.00,,,0.00,VWS V14.01,2013-01-13 13:17:00,
2013-01-13 08:22:00,38.9,38.4,29.98,East,101,0.0,0.0,98,0.00,,,0.00,VWS V14.01,2013-01-13 13:22:00,
2013-01-13 08:27:00,39.1,38.6,29.99,East,101,0.0,0.0,98,0.00,,,0.00,VWS V14.01,2013-01-13 13:27:00,
2013-01-13 08:32:00,39.3,38.8,29.99,East,101,0.0,0.0,98,0.00,,,0.00,VWS V14.01,2013-01-13 13:32:00,
2013-01-13 08:37:00,39.6,39.1,29.99,East,101,0.0,0.0,98,0.01,,,0.01,VWS V14.01,2013-01-13 13:37:00,
2013-01-13 08:42:00,39.9,39.4,29.98,East,101,0.0,0.0,98,0.01,,,0.01,VWS V14.01,2013-01-13 13:42:00,
2013-01-13 08:47:00,40.1,39.6,29.99,East,101,0.0,0.0,98,0.01,,,0.01,VWS V14.01,2013-01-13 13:47:00,
2013-01-13 08:52:00,40.3,39.8,29.99,East,101,0.0,0.0,98,0.01,,,0.01,VWS V14.01,2013-01-13 13:52:00,
2013-01-13 08:57:00,40.5,40.0,29.99,East,101,0.0,0.0,98,0.01,,,0.01,VWS V14.01,2013-01-13 13:57:00,
2013-01-13 09:02:00,40.6,40.1,29.99,East,101,0.0,0.0,98,0.01,,,0.01,VWS V14.01,2013-01-13 14:02:00,
2013-01-13 09:07:00,40.7,40.2,30.00,East,101,0.0,0.0,98,0.01,,,0.01,VWS V14.01,2013-01-13 14:07:00,
2013-01-13 09:12:00,40.7,40.2,30.00,East,101,0.0,0.0,98,0.01,,,0.01,VWS V14.01,2013-01-13 14:12:00,
2013-01-13 09:17:00,40.8,40.3,29.99,East,101,0.0,0.0,98,0.01,,,0.01,VWS V14.01,2013-01-13 14:17:00,
2013-01-13 09:22:00,41.1,40.6,29.98,East,101,0.0,0.0,98,0.01,,,0.01,VWS V14.01,2013-01-13 14:22:00,
2013-01-13 09:27:00,41.3,40.8,29.99,East,101,0.0,0.0,98,0.01,,,0.01,VWS V14.01,2013-01-13 14:27:00,
2013-01-13 09:32:00,41.8,41.3,29.99,East,101,0.0,0.0,98,0.01,,,0.01,VWS V14.01,2013-01-13 14:32:00,
2013-01-13 09:37:00,42.0,41.5,29.99,East,101,0.0,0.0,98,0.00,,,0.01,VWS V14.01,2013-01-13 14:37:00,
2013-01-13 09:42:00,42.3,41.8,29.99,East,101,0.0,0.0,98,0.00,,,0.01,VWS V14.01,2013-01-13 14:42:00,
2013-01-13 09:47:00,42.7,42.2,29.99,East,101,0.0,0.0,98,0.00,,,0.01,VWS V14.01,2013-01-13 14:47:00,
2013-01-13 09:52:00,43.1,42.6,29.99,East,101,0.0,0.0,98,0.00,,,0.01,VWS V14.01,2013-01-13 14:52:00,
2013-01-13 09:57:00,43.2,42.7,30.00,East,101,0.0,0.0,98,0.00,,,0.01,VWS V14.01,2013-01-13 14:57:00,
2013-01-13 10:02:00,43.3,42.8,30.00,East,101,0.0,0.0,98,0.00,,,0.01,VWS V14.01,2013-01-13 15:02:00,
2013-01-13 10:07:00,43.4,42.9,30.00,East,101,0.0,0.0,98,0.00,,,0.01,VWS V14.01,2013-01-13 15:07:00,
2013-01-13 10:12:00,43.6,43.1,30.00,East,101,0.0,0.0,98,0.00,,,0.01,VWS V14.01,2013-01-13 15:12:00,
2013-01-13 10:17:00,43.7,43.2,30.00,East,101,0.0,0.0,98,0.00,,,0.01,VWS V14.01,2013-01-13 15:17:00,
2013-01-13 10:22:00,43.8,43.3,29.99,East,101,0.0,0.0,98,0.00,,,0.01,VWS V14.01,2013-01-13 15:22:00,
2013-01-13 10:27:00,43.7,43.2,29.99,East,101,0.0,0.0,98,0.00,,,0.01,VWS V14.01,2013-01-13 15:27:00,
2013-01-13 10:32:00,43.8,43.3,29.99,ESE,102,0.0,0.0,98,0.00,,,0.01,VWS V14.01,2013-01-13 15:32:00,
2013-01-13 10:37:00,43.9,43.4,29.99,ESE,102,0.0,0.0,98,0.00,,,0.01,VWS V14.01,2013-01-13 15:37:00,
2013-01-13 10:42:00,44.0,43.5,29.99,ESE,102,0.0,0.0,98,0.00,,,0.01,VWS V14.01,2013-01-13 15:42:00,
2013-01-13 10:47:00,44.1,43.6,29.99,ESE,102,0.0,0.0,98,0.00,,,0.01,VWS V14.01,2013-01-13 15:47:00,
2013-01-13 10:52:00,44.2,43.7,29.98,ESE,102,0.0,0.0,98,0.00,,,0.01,VWS V14.01,2013-01-13 15:52:00,
2013-01-13 10:57:00,44.5,44.0,29.98,ESE,102,0.0,0.0,98,0.00,,,0.01,VWS V14.01,2013-01-13 15:57:00,
2013-01-13 11:02:00,44.6,44.1,29.98,ESE,102,0.0,0.0,98,0.00,,,0.01,VWS V14.01,2013-01-13 16:02:00,
2013-01-13 11:07:00,44.8,44.3,29.98,ESE,102,0.0,0.0,98,0.00,,,0.01,VWS V14.01,2013-01-13 16:07:00,
2013-01-13 11:12:00,44.9,44.4,29.97,South,172,0.0,0.0,98,0.00,,,0.01,VWS V14.01,2013-01-13 16:12:00,
2013-01-13 11:17:00,44.7,44.2,29.97,South,183,1.0,1.0,98,0.00,,,0.01,VWS V14.01,2013-01-13 16:17:00,
2013-01-13 11:22:00,44.8,44.3,29.97,South,183,0.0,0.0,98,0.00,,,0.01,VWS V14.01,2013-01-13 16:22:00,
2013-01-13 11:27:00,44.8,44.3,29.97,South,183,0.0,0.0,98,0.00,,,0.01,VWS V14.01,2013-01-13 16:27:00,
2013-01-13 11:32:00,44.9,44.4,29.96,South,183,0.0,0.0,98,0.00,,,0.01,VWS V14.01,2013-01-13 16:32:00,
2013-01-13 11:37:00,45.0,44.5,29.96,South,183,0.0,1.0,98,0.00,,,0.01,VWS V14.01,2013-01-13 16:37:00,
2013-01-13 11:42:00,44.9,44.4,29.96,South,183,0.0,0.0,98,0.00,,,0.01,VWS V14.01,2013-01-13 16:42:00,
2013-01-13 11:47:00,45.0,44.5,29.96,South,183,0.0,0.0,98,0.00,,,0.01,VWS V14.01,2013-01-13 16:47:00,
2013-01-13 11:52:00,45.0,44.5,29.96,South,183,0.0,0.0,98,0.00,,,0.01,VWS V14.01,2013-01-13 16:52:00,
2013-01-13 11:57:00,45.1,44.6,29.96,South,183,0.0,0.0,98,0.00,,,0.01,VWS V14.01,2013-01-13 16:57:00,
2013-01-13 12:02:00,45.3,44.8,29.95,South,183,0.0,0.0,98,0.00,,,0.01,VWS V14.01,2013-01-13 17:02:00,
2013-01-13 12:07:00,45.5,45.0,29.95,South,183,0.0,0.0,98,0.00,,,0.01,VWS V14.01,2013-01-13 17:07:00,
2013-01-13 12:12:00,45.4,44.9,29.95,South,183,0.0,0.0,98,0.00,,,0.01,VWS V14.01,2013-01-13 17:12:00,
2013-01-13 12:17:00,45.5,45.0,29.95,South,183,0.0,0.0,98,0.00,,,0.01,VWS V14.01,2013-01-13 17:17:00,
2013-01-13 12:22:00,45.7,45.2,29.95,South,183,3.0,3.0,98,0.00,,,0.01,VWS V14.01,2013-01-13 17:22:00,
2013-01-13 12:27:00,45.9,45.4,29.94,South,183,0.0,0.0,98,0.00,,,0.01,VWS V14.01,2013-01-13 17:27:00,
2013-01-13 12:32:00,46.1,45.6,29.94,South,183,0.0,0.0,98,0.00,,,0.01,VWS V14.01,2013-01-13 17:32:00,
2013-01-13 12:37:00,46.1,45.6,29.94,South,183,0.0,2.0,98,0.00,,,0.01,VWS V14.01,2013-01-13 17:37:00,
2013-01-13 12:42:00,46.2,45.7,29.93,South,183,0.0,0.0,98,0.00,,,0.01,VWS V14.01,2013-01-13 17:42:00,
2013-01-13 12:47:00,46.4,45.9,29.93,South,183,0.0,0.0,98,0.00,,,0.01,VWS V14.01,2013-01-13 17:47:00,
2013-01-13 12:52:00,46.4,45.9,29.93,South,183,0.0,2.0,98,0.00,,,0.01,VWS V14.01,2013-01-13 17:52:00,
2013-01-13 12:57:00,46.5,46.0,29.93,South,183,0.0,0.0,98,0.00,,,0.01,VWS V14.01,2013-01-13 17:57:00,
2013-01-13 13:02:00,46.5,46.0,29.93,South,185,1.0,2.0,98,0.00,,,0.01,VWS V14.01,2013-01-13 18:02:00,
2013-01-13 13:07:00,46.5,46.0,29.92,South,185,0.0,1.0,98,0.00,,,0.01,VWS V14.01,2013-01-13 18:07:00,
2013-01-13 13:12:00,46.5,46.0,29.92,South,183,0.0,0.0,98,0.00,,,0.01,VWS V14.01,2013-01-13 18:12:00,
2013-01-13 13:17:00,46.6,46.1,29.92,South,183,0.0,1.0,98,0.00,,,0.01,VWS V14.01,2013-01-13 18:17:00,
2013-01-13 13:22:00,46.7,46.2,29.93,South,185,1.0,1.0,98,0.00,,,0.01,VWS V14.01,2013-01-13 18:22:00,
2013-01-13 13:27:00,46.8,46.3,29.93,South,190,0.0,0.0,98,0.00,,,0.01,VWS V14.01,2013-01-13 18:27:00,
2013-01-13 13:32:00,46.8,46.3,29.92,South,190,0.0,0.0,98,0.00,,,0.01,VWS V14.01,2013-01-13 18:32:00,
2013-01-13 13:37:00,46.9,46.4,29.92,South,190,0.0,0.0,98,0.00,,,0.01,VWS V14.01,2013-01-13 18:37:00,
2013-01-13 13:42:00,46.9,46.4,29.92,South,190,0.0,0.0,98,0.00,,,0.01,VWS V14.01,2013-01-13 18:42:00,
2013-01-13 13:47:00,46.9,46.4,29.92,South,190,0.0,2.0,98,0.00,,,0.01,VWS V14.01,2013-01-13 18:47:00,
2013-01-13 13:52:00,46.8,46.3,29.92,South,190,0.0,0.0,98,0.00,,,0.01,VWS V14.01,2013-01-13 18:52:00,
2013-01-13 13:57:00,46.7,46.2,29.92,South,190,0.0,0.0,98,0.00,,,0.01,VWS V14.01,2013-01-13 18:57:00,
2013-01-13 14:02:00,46.7,46.2,29.92,South,190,0.0,0.0,98,0.00,,,0.01,VWS V14.01,2013-01-13 19:02:00,
2013-01-13 14:07:00,46.8,46.3,29.92,South,191,0.0,1.0,98,0.00,,,0.01,VWS V14.01,2013-01-13 19:07:00,
2013-01-13 14:12:00,46.9,46.4,29.91,South,191,0.0,0.0,98,0.00,,,0.01,VWS V14.01,2013-01-13 19:12:00,
2013-01-13 14:17:00,47.0,46.5,29.91,South,191,0.0,0.0,98,0.00,,,0.01,VWS V14.01,2013-01-13 19:17:00,
2013-01-13 14:22:00,47.1,46.6,29.91,South,191,0.0,0.0,98,0.00,,,0.01,VWS V14.01,2013-01-13 19:22:00,
2013-01-13 14:27:00,47.0,46.5,29.90,South,191,0.0,0.0,98,0.00,,,0.01,VWS V14.01,2013-01-13 19:27:00,
2013-01-13 14:32:00,46.9,46.4,29.90,South,191,0.0,0.0,98,0.00,,,0.01,VWS V14.01,2013-01-13 19:32:00,
2013-01-13 14:37:00,47.1,46.6,29.90,SSW,198,0.0,1.0,98,0.00,,,0.01,VWS V14.01,2013-01-13 19:37:00,
2013-01-13 14:42:00,47.1,46.6,29.90,West,263,1.0,2.0,98,0.00,,,0.01,VWS V14.01,2013-01-13 19:42:00,
2013-01-13 14:47:00,47.2,46.7,29.90,SSW,201,0.0,1.0,98,0.00,,,0.01,VWS V14.01,2013-01-13 19:47:00,
2013-01-13 14:52:00,47.2,46.7,29.90,SE,144,0.0,1.0,98,0.00,,,0.01,VWS V14.01,2013-01-13 19:52:00,
2013-01-13 14:57:00,47.3,46.8,29.90,SSE,159,0.0,1.0,98,0.00,,,0.01,VWS V14.01,2013-01-13 19:57:00,
2013-01-13 15:02:00,47.4,46.9,29.90,SSE,159,0.0,0.0,98,0.00,,,0.01,VWS V14.01,2013-01-13 20:02:00,
2013-01-13 15:07:00,47.8,47.3,29.90,South,191,0.0,2.0,98,0.00,,,0.01,VWS V14.01,2013-01-13 20:07:00,
2013-01-13 15:12:00,47.7,47.2,29.90,SSE,156,0.0,0.0,98,0.00,,,0.01,VWS V14.01,2013-01-13 20:12:00,
2013-01-13 15:17:00,47.8,47.3,29.90,SSW,192,1.0,4.0,98,0.00,,,0.01,VWS V14.01,2013-01-13 20:17:00,
2013-01-13 15:22:00,47.7,47.2,29.90,SSW,204,0.0,1.0,98,0.00,,,0.01,VWS V14.01,2013-01-13 20:22:00,
2013-01-13 15:27:00,47.5,47.0,29.90,SSW,204,0.0,0.0,98,0.00,,,0.01,VWS V14.01,2013-01-13 20:27:00,
2013-01-13 15:32:00,47.5,47.0,29.89,WSW,248,0.0,2.0,98,0.00,,,0.01,VWS V14.01,2013-01-13 20:32:00,
2013-01-13 15:37:00,47.6,47.1,29.89,WSW,248,0.0,0.0,98,0.00,,,0.01,VWS V14.01,2013-01-13 20:37:00,
2013-01-13 15:42:00,47.5,47.0,29.89,WSW,248,0.0,0.0,98,0.00,,,0.01,VWS V14.01,2013-01-13 20:42:00,
2013-01-13 15:47:00,47.4,46.9,29.89,WSW,248,0.0,0.0,98,0.00,,,0.01,VWS V14.01,2013-01-13 20:47:00,
2013-01-13 15:52:00,47.5,47.0,29.88,WSW,248,0.0,0.0,98,0.00,,,0.01,VWS V14.01,2013-01-13 20:52:00,
2013-01-13 15:57:00,47.4,46.9,29.89,WSW,248,0.0,0.0,98,0.00,,,0.01,VWS V14.01,2013-01-13 20:57:00,
2013-01-13 16:02:00,47.4,46.9,29.89,WSW,248,0.0,1.0,98,0.00,,,0.01,VWS V14.01,2013-01-13 21:02:00,
2013-01-13 16:07:00,47.4,46.9,29.90,SSE,160,0.0,1.0,98,0.00,,,0.01,VWS V14.01,2013-01-13 21:07:00,
2013-01-13 16:12:00,47.5,47.0,29.89,South,178,0.0,0.0,98,0.00,,,0.01,VWS V14.01,2013-01-13 21:12:00,
2013-01-13 16:17:00,47.5,47.0,29.89,South,178,0.0,0.0,98,0.00,,,0.01,VWS V14.01,2013-01-13 21:17:00,
2013-01-13 16:22:00,47.3,46.8,29.89,South,178,0.0,0.0,98,0.00,,,0.01,VWS V14.01,2013-01-13 21:22:00,
2013-01-13 16:27:00,47.2,46.7,29.89,South,178,0.0,0.0,98,0.00,,,0.01,VWS V14.01,2013-01-13 21:27:00,
2013-01-13 16:32:00,47.0,46.5,29.88,South,178,0.0,0.0,98,0.00,,,0.01,VWS V14.01,2013-01-13 21:32:00,
2013-01-13 16:37:00,46.9,46.4,29.88,South,178,1.0,1.0,98,0.00,,,0.01,VWS V14.01,2013-01-13 21:37:00,
2013-01-13 16:42:00,46.8,46.3,29.88,South,178,0.0,0.0,98,0.00,,,0.01,VWS V14.01,2013-01-13 21:42:00,
2013-01-13 16:47:00,46.6,46.1,29.88,South,178,0.0,0.0,98,0.00,,,0.01,VWS V14.01,2013-01-13 21:47:00,
2013-01-13 16:52:00,46.5,46.0,29.88,South,178,0.0,0.0,98,0.00,,,0.01,VWS V14.01,2013-01-13 21:52:00,
2013-01-13 16:57:00,46.3,45.8,29.88,South,178,0.0,0.0,98,0.00,,,0.01,VWS V14.01,2013-01-13 21:57:00,
2013-01-13 17:02:00,46.2,45.7,29.88,South,178,0.0,0.0,98,0.00,,BKN038,0.01,VWS V14.01,2013-01-13 22:02:00,
2013-01-13 17:07:00,46.1,45.6,29.87,South,178,0.0,0.0,98,0.00,,BKN038,0.01,VWS V14.01,2013-01-13 22:07:00,
2013-01-13 17:12:00,46.0,45.5,29.87,South,178,0.0,1.0,98,0.00,,BKN038,0.01,VWS V14.01,2013-01-13 22:12:00,
2013-01-13 17:17:00,45.9,45.4,29.87,South,178,0.0,0.0,98,0.00,,BKN038,0.01,VWS V14.01,2013-01-13 22:17:00,
2013-01-13 17:22:00,45.9,45.4,29.87,South,178,0.0,0.0,98,0.00,,BKN038,0.01,VWS V14.01,2013-01-13 22:22:00,
2013-01-13 17:27:00,45.9,45.4,29.87,South,178,0.0,0.0,98,0.00,,BKN038,0.01,VWS V14.01,2013-01-13 22:27:00,
2013-01-13 17:32:00,45.9,45.4,29.88,South,178,0.0,0.0,98,0.00,,BKN038,0.01,VWS V14.01,2013-01-13 22:32:00,
2013-01-13 17:37:00,46.0,45.5,29.88,South,178,0.0,0.0,98,0.00,,BKN038,0.01,VWS V14.01,2013-01-13 22:37:00,
2013-01-13 17:42:00,45.9,45.4,29.87,South,178,0.0,0.0,98,0.00,,BKN038,0.01,VWS V14.01,2013-01-13 22:42:00,
2013-01-13 17:47:00,45.5,45.0,29.87,South,178,0.0,0.0,98,0.00,,BKN038,0.01,VWS V14.01,2013-01-13 22:47:00,
2013-01-13 17:52:00,45.3,44.8,29.87,South,178,0.0,0.0,98,0.00,,BKN038,0.01,VWS V14.01,2013-01-13 22:52:00,
2013-01-13 17:57:00,45.2,44.7,29.86,South,178,0.0,0.0,98,0.00,,BKN038,0.01,VWS V14.01,2013-01-13 22:57:00,
2013-01-13 18:02:00,45.2,44.7,29.86,South,178,0.0,0.0,98,0.00,,BKN024,0.01,VWS V14.01,2013-01-13 23:02:00,
2013-01-13 18:07:00,45.2,44.7,29.86,South,178,0.0,0.0,98,0.00,,BKN024,0.01,VWS V14.01,2013-01-13 23:07:00,
2013-01-13 18:12:00,45.4,44.9,29.86,South,178,0.0,0.0,98,0.00,,BKN024,0.01,VWS V14.01,2013-01-13 23:12:00,
2013-01-13 18:17:00,45.5,45.0,29.86,WSW,245,2.0,2.0,98,0.00,,BKN024,0.01,VWS V14.01,2013-01-13 23:17:00,
2013-01-13 18:22:00,45.7,45.2,29.86,WSW,245,0.0,0.0,98,0.00,,BKN024,0.01,VWS V14.01,2013-01-13 23:22:00,
2013-01-13 18:27:00,45.8,45.3,29.87,WSW,245,0.0,0.0,98,0.00,,BKN024,0.01,VWS V14.01,2013-01-13 23:27:00,
2013-01-13 18:32:00,45.8,45.3,29.86,WSW,245,0.0,1.0,98,0.00,,OVC017,0.01,VWS V14.01,2013-01-13 23:32:00,
2013-01-13 18:37:00,46.0,45.5,29.87,WSW,245,0.0,0.0,98,0.00,,OVC017,0.01,VWS V14.01,2013-01-13 23:37:00,
2013-01-13 18:42:00,46.2,45.7,29.87,South,171,0.0,1.0,98,0.00,,OVC017,0.01,VWS V14.01,2013-01-13 23:42:00,
2013-01-13 18:47:00,46.3,45.8,29.87,WNW,300,0.0,1.0,98,0.00,,OVC017,0.01,VWS V14.01,2013-01-13 23:47:00,
2013-01-13 18:52:00,46.3,45.8,29.87,WNW,290,0.0,0.0,98,0.00,,OVC017,0.01,VWS V14.01,2013-01-13 23:52:00,
2013-01-13 18:57:00,46.4,45.9,29.87,South,180,3.0,3.0,98,0.00,,OVC017,0.01,VWS V14.01,2013-01-13 23:57:00,
2013-01-13 19:02:00,46.8,46.3,29.87,SSE,161,0.0,2.0,98,0.00,,OVC017,0.01,VWS V14.01,2013-01-14 00:02:00,
2013-01-13 19:07:00,46.9,46.4,29.87,SW,218,0.0,1.0,98,0.00,,OVC017,0.01,VWS V14.01,2013-01-14 00:07:00,
2013-01-13 19:12:00,47.2,46.7,29.87,South,175,1.0,2.0,98,0.00,,OVC017,0.01,VWS V14.01,2013-01-14 00:12:00,
2013-01-13 19:17:00,47.2,46.7,29.87,South,175,0.0,2.0,98,0.00,,OVC017,0.01,VWS V14.01,2013-01-14 00:17:00,
2013-01-13 19:22:00,47.1,46.6,29.88,South,175,0.0,0.0,98,0.00,,OVC017,0.01,VWS V14.01,2013-01-14 00:22:00,
2013-01-13 19:27:00,47.2,46.7,29.87,SSE,161,1.0,4.0,98,0.00,,OVC017,0.01,VWS V14.01,2013-01-14 00:27:00,
2013-01-13 19:32:00,47.4,46.9,29.87,SSW,192,3.0,3.0,98,0.00,,OVC017,0.01,VWS V14.01,2013-01-14 00:32:00,
2013-01-13 19:37:00,47.5,47.0,29.88,South,182,2.0,5.0,98,0.00,,OVC013,0.01,VWS V14.01,2013-01-14 00:37:00,
2013-01-13 19:42:00,47.8,47.3,29.88,South,182,1.0,3.0,98,0.00,,OVC013,0.01,VWS V14.01,2013-01-14 00:42:00,
2013-01-13 19:47:00,47.8,47.3,29.87,SE,140,5.0,5.0,98,0.00,,OVC013,0.01,VWS V14.01,2013-01-14 00:47:00,
2013-01-13 19:52:00,48.0,47.5,29.87,South,178,1.0,3.0,98,0.00,,OVC013,0.01,VWS V14.01,2013-01-14 00:52:00,
2013-01-13 19:57:00,48.1,47.6,29.88,South,173,2.0,2.0,98,0.00,,OVC013,0.01,VWS V14.01,2013-01-14 00:57:00,
2013-01-13 20:02:00,48.2,47.7,29.87,SE,140,0.0,2.0,98,0.00,,OVC011,0.01,VWS V14.01,2013-01-14 01:02:00,
2013-01-13 20:07:00,47.9,47.1,29.87,South,191,0.0,0.0,97,0.00,,OVC011,0.01,VWS V14.01,2013-01-14 01:07:00,
2013-01-13 20:12:00,47.6,46.8,29.87,East,82,0.0,0.0,97,0.00,,OVC011,0.01,VWS V14.01,2013-01-14 01:12:00,
2013-01-13 20:17:00,47.6,46.8,29.87,South,181,2.0,2.0,97,0.00,,OVC011,0.01,VWS V14.01,2013-01-14 01:17:00,
2013-01-13 20:22:00,47.4,46.3,29.87,South,181,0.0,0.0,96,0.00,,OVC011,0.01,VWS V14.01,2013-01-14 01:22:00,
2013-01-13 20:27:00,47.2,46.1,29.86,South,179,0.0,2.0,96,0.00,,OVC011,0.01,VWS V14.01,2013-01-14 01:27:00,
2013-01-13 20:32:00,47.1,46.0,29.86,South,175,0.0,0.0,96,0.00,,OVC012,0.01,VWS V14.01,2013-01-14 01:32:00,
2013-01-13 20:37:00,47.3,46.2,29.87,South,179,0.0,0.0,96,0.00,,OVC012,0.01,VWS V14.01,2013-01-14 01:37:00,
2013-01-13 20:42:00,47.4,46.3,29.86,South,182,0.0,0.0,96,0.00,,OVC012,0.01,VWS V14.01,2013-01-14 01:42:00,
2013-01-13 20:46:00,47.4,46.3,29.86,SSW,205,2.0,3.0,96,0.00,,OVC012,0.01,VWS V14.01,2013-01-14 01:46:00,
2013-01-13 20:52:00,47.7,46.6,29.87,South,184,2.0,4.0,96,0.00,,OVC012,0.01,VWS V14.01,2013-01-14 01:52:00,
2013-01-13 20:57:00,48.3,47.2,29.87,South,173,1.0,2.0,96,0.00,,OVC012,0.01,VWS V14.01,2013-01-14 01:57:00,
2013-01-13 21:02:00,48.4,47.3,29.86,SSE,163,3.0,5.0,96,0.00,,OVC005,0.01,VWS V14.01,2013-01-14 02:02:00,
2013-01-13 21:07:00,48.8,47.4,29.85,SSW,193,4.0,4.0,95,0.00,,OVC005,0.01,VWS V14.01,2013-01-14 02:07:00,
2013-01-13 21:11:00,49.0,47.6,29.85,South,178,1.0,1.0,95,0.00,,OVC005,0.01,VWS V14.01,2013-01-14 02:11:00,
2013-01-13 21:16:00,49.0,47.6,29.85,South,173,0.0,2.0,95,0.00,,OVC005,0.01,VWS V14.01,2013-01-14 02:16:00,
2013-01-13 21:21:00,48.9,47.2,29.85,South,179,0.0,0.0,94,0.00,,OVC005,0.01,VWS V14.01,2013-01-14 02:21:00,
2013-01-13 21:26:00,48.7,47.0,29.85,SSW,211,4.0,4.0,94,0.00,,OVC005,0.01,VWS V14.01,2013-01-14 02:26:00,
2013-01-13 21:31:00,48.7,47.0,29.85,SSW,213,0.0,1.0,94,0.00,,,0.01,VWS V14.01,2013-01-14 02:31:00,
2013-01-13 21:36:00,48.7,47.0,29.85,SW,227,0.0,0.0,94,0.00,,,0.01,VWS V14.01,2013-01-14 02:36:00,
2013-01-13 21:41:00,48.4,46.8,29.85,SW,227,0.0,0.0,94,0.00,,,0.01,VWS V14.01,2013-01-14 02:41:00,
2013-01-13 21:46:00,48.2,46.6,29.84,West,278,0.0,0.0,94,0.00,,,0.01,VWS V14.01,2013-01-14 02:46:00,
2013-01-13 21:51:00,47.9,46.3,29.84,South,180,1.0,4.0,94,0.00,,,0.01,VWS V14.01,2013-01-14 02:51:00,
2013-01-13 21:56:00,48.1,46.5,29.84,South,184,0.0,0.0,94,0.00,,,0.01,VWS V14.01,2013-01-14 02:56:00,
2013-01-13 22:01:00,48.3,46.9,29.85,SW,216,0.0,1.0,95,0.00,,,0.01,VWS V14.01,2013-01-14 03:01:00,
2013-01-13 22:06:00,48.5,47.1,29.85,WSW,246,1.0,4.0,95,0.00,,,0.01,VWS V14.01,2013-01-14 03:06:00,
2013-01-13 22:11:00,48.6,47.0,29.84,South,188,1.0,3.0,94,0.00,,,0.01,VWS V14.01,2013-01-14 03:11:00,
2013-01-13 22:16:00,48.7,47.3,29.84,South,174,0.0,1.0,95,0.00,,,0.01,VWS V14.01,2013-01-14 03:16:00,
2013-01-13 22:21:00,48.6,47.0,29.84,South,190,2.0,4.0,94,0.00,,,0.01,VWS V14.01,2013-01-14 03:21:00,
2013-01-13 22:26:00,48.7,47.3,29.84,WSW,240,0.0,1.0,95,0.00,,,0.01,VWS V14.01,2013-01-14 03:26:00,
2013-01-13 22:31:00,48.8,47.4,29.84,South,180,3.0,7.0,95,0.00,,,0.01,VWS V14.01,2013-01-14 03:31:00,
2013-01-13 22:36:00,49.1,47.7,29.84,South,178,4.0,5.0,95,0.00,,,0.01,VWS V14.01,2013-01-14 03:36:00,
2013-01-13 22:41:00,49.2,47.8,29.84,SE,144,1.0,3.0,95,0.00,,,0.01,VWS V14.01,2013-01-14 03:41:00,
2013-01-13 22:46:00,49.2,47.8,29.85,SSW,213,1.0,2.0,95,0.00,,,0.01,VWS V14.01,2013-01-14 03:46:00,
2013-01-13 22:51:00,49.2,47.8,29.85,SE,144,1.0,3.0,95,0.00,,,0.01,VWS V14.01,2013-01-14 03:51:00,
2013-01-13 22:56:00,49.1,47.5,29.84,SSW,197,2.0,2.0,94,0.00,,,0.01,VWS V14.01,2013-01-14 03:56:00,
2013-01-13 23:01:00,49.1,47.7,29.84,South,181,2.0,5.0,95,0.00,,,0.01,VWS V14.01,2013-01-14 04:01:00,
2013-01-13 23:06:00,49.1,47.7,29.84,South,186,5.0,5.0,95,0.00,,,0.01,VWS V14.01,2013-01-14 04:06:00,
2013-01-13 23:11:00,49.2,47.8,29.85,South,184,2.0,2.0,95,0.00,,,0.01,VWS V14.01,2013-01-14 04:11:00,
2013-01-13 23:16:00,49.1,47.7,29.84,South,181,0.0,1.0,95,0.00,,,0.01,VWS V14.01,2013-01-14 04:16:00,
2013-01-13 23:21:00,49.0,47.6,29.84,SE,143,0.0,0.0,95,0.00,,,0.01,VWS V14.01,2013-01-14 04:21:00,
2013-01-13 23:26:00,49.1,47.7,29.84,SSE,159,4.0,5.0,95,0.00,,,0.01,VWS V14.01,2013-01-14 04:26:00,
2013-01-13 23:31:00,49.2,48.1,29.84,South,180,2.0,3.0,96,0.00,,,0.01,VWS V14.01,2013-01-14 04:31:00,
2013-01-13 23:36:00,49.2,48.1,29.85,South,175,3.0,3.0,96,0.00,,,0.01,VWS V14.01,2013-01-14 04:36:00,
2013-01-13 23:41:00,49.2,48.1,29.85,SSE,161,0.0,4.0,96,0.00,,,0.01,VWS V14.01,2013-01-14 04:41:00,
2013-01-13 23:46:00,49.2,48.1,29.84,South,189,1.0,2.0,96,0.00,,,0.01,VWS V14.01,2013-01-14 04:46:00,
2013-01-13 23:51:00,49.2,48.1,29.84,South,186,1.0,3.0,96,0.00,,,0.01,VWS V14.01,2013-01-14 04:51:00,
2013-01-13 23:56:00,49.1,48.0,29.84,SSW,198,3.0,4.0,96,0.00,,,0.01,VWS V14.01,2013-01-14 04:56:00,